createdAt,value
2019-04-28T00:01:24.103Z,13.50
2019-04-28T00:03:53.420Z,13.50
2019-04-28T00:06:22.788Z,13.50
2019-04-28T00:08:52.503Z,13.50
2019-04-28T00:11:22.224Z,13.50
2019-04-28T00:13:53.405Z,13.50
2019-04-28T00:16:22.970Z,13.50
2019-04-28T00:18:52.533Z,13.50
2019-04-28T00:21:34.340Z,13.50
2019-04-28T00:24:23.069Z,13.60
2019-04-28T00:27:01.786Z,13.60
2019-04-28T00:29:38.646Z,13.60
2019-04-28T00:32:02.367Z,13.60
2019-04-28T00:34:31.608Z,13.60
2019-04-28T00:37:21.094Z,13.60
2019-04-28T00:39:51.050Z,13.60
2019-04-28T00:42:22.522Z,13.60
2019-04-28T00:44:51.553Z,13.60
2019-04-28T00:47:21.177Z,13.60
2019-04-28T00:49:51.917Z,13.60
2019-04-28T00:52:22.269Z,13.50
2019-04-28T00:54:52.653Z,13.50
2019-04-28T00:57:22.111Z,13.50
2019-04-28T00:59:57.518Z,13.50
2019-04-28T01:02:31.200Z,13.50
2019-04-28T01:05:01.601Z,13.50
2019-04-28T01:07:32.964Z,13.40
2019-04-28T01:10:02.251Z,13.40
2019-04-28T01:12:31.543Z,13.40
2019-04-28T01:15:04.558Z,13.40
2019-04-28T01:17:56.751Z,13.40
2019-04-28T01:20:26.315Z,13.40
2019-04-28T01:22:55.650Z,13.40
2019-04-28T01:25:25.022Z,13.40
2019-04-28T01:27:55.563Z,13.40
2019-04-28T01:30:43.979Z,13.40
2019-04-28T01:33:35.490Z,13.40
2019-04-28T01:36:05.291Z,13.40
2019-04-28T01:38:34.615Z,13.30
2019-04-28T01:41:03.982Z,13.30
2019-04-28T01:43:33.322Z,13.30
2019-04-28T01:46:02.702Z,13.30
2019-04-28T01:48:31.990Z,13.40
2019-04-28T01:51:01.255Z,13.40
2019-04-28T01:53:30.922Z,13.30
2019-04-28T01:56:00.366Z,13.40
2019-04-28T01:58:29.819Z,13.30
2019-04-28T02:00:59.580Z,13.30
2019-04-28T02:03:30.746Z,13.30
2019-04-28T02:06:00.326Z,13.30
2019-04-28T02:08:30.211Z,13.30
2019-04-28T02:11:00.223Z,13.30
2019-04-28T02:13:29.968Z,13.30
2019-04-28T02:16:00.079Z,13.30
2019-04-28T02:18:30.057Z,13.30
2019-04-28T02:21:17.078Z,13.30
2019-04-28T02:23:46.409Z,13.30
2019-04-28T02:26:15.773Z,13.20
2019-04-28T02:28:45.153Z,13.20
2019-04-28T02:31:14.526Z,13.20
2019-04-28T02:33:43.950Z,13.30
2019-04-28T02:36:13.286Z,13.30
2019-04-28T02:38:42.542Z,13.20
2019-04-28T02:41:11.821Z,13.30
2019-04-28T02:43:41.169Z,13.30
2019-04-28T02:46:10.661Z,13.20
2019-04-28T02:48:40.490Z,13.20
2019-04-28T02:51:25.090Z,13.20
2019-04-28T02:53:54.373Z,13.20
2019-04-28T02:56:23.624Z,13.20
2019-04-28T02:58:52.983Z,13.20
2019-04-28T03:01:26.484Z,13.20
2019-04-28T03:03:53.282Z,13.20
2019-04-28T03:06:22.546Z,13.30
2019-04-28T03:08:51.843Z,13.30
2019-04-28T03:11:21.153Z,13.30
2019-04-28T03:13:51.138Z,13.30
2019-04-28T03:16:23.053Z,13.30
2019-04-28T03:18:51.736Z,13.30
2019-04-28T03:21:21.485Z,13.30
2019-04-28T03:23:51.699Z,13.30
2019-04-28T03:26:41.368Z,13.30
2019-04-28T03:29:24.416Z,13.30
2019-04-28T03:32:25.141Z,13.20
2019-04-28T03:34:53.916Z,13.20
2019-04-28T03:37:21.606Z,13.20
2019-04-28T03:39:51.405Z,13.20
2019-04-28T03:42:21.560Z,13.20
2019-04-28T03:44:51.447Z,13.20
2019-04-28T03:47:21.535Z,13.10
2019-04-28T03:49:51.368Z,13.10
2019-04-28T03:52:21.420Z,13.00
2019-04-28T03:54:51.328Z,13.00
2019-04-28T03:57:21.580Z,13.00
2019-04-28T03:59:51.540Z,13.00
2019-04-28T04:02:23.645Z,12.90
2019-04-28T04:04:52.851Z,12.90
2019-04-28T04:07:22.336Z,12.90
2019-04-28T04:10:16.692Z,12.90
2019-04-28T04:12:51.048Z,12.80
2019-04-28T04:15:54.713Z,12.80
2019-04-28T04:18:32.769Z,12.80
2019-04-28T04:21:02.091Z,12.80
2019-04-28T04:23:31.399Z,12.80
2019-04-28T04:26:01.795Z,12.80
2019-04-28T04:28:31.351Z,12.80
2019-04-28T04:31:03.178Z,12.80
2019-04-28T04:33:31.586Z,12.80
2019-04-28T04:36:01.818Z,12.80
2019-04-28T04:38:31.426Z,12.80
2019-04-28T04:41:01.655Z,12.80
2019-04-28T04:43:31.525Z,12.80
2019-04-28T04:46:22.078Z,12.80
2019-04-28T04:48:50.814Z,12.80
2019-04-28T04:51:21.296Z,12.80
2019-04-28T04:53:51.643Z,12.80
2019-04-28T04:56:21.624Z,12.90
2019-04-28T04:58:51.260Z,12.90
2019-04-28T05:01:40.827Z,12.90
2019-04-28T05:04:32.351Z,12.90
2019-04-28T05:07:01.735Z,12.90
2019-04-28T05:09:31.239Z,12.90
2019-04-28T05:12:00.679Z,13.00
2019-04-28T05:14:30.008Z,13.00
2019-04-28T05:17:00.824Z,13.00
2019-04-28T05:19:30.271Z,13.00
2019-04-28T05:22:00.104Z,13.10
2019-04-28T05:24:40.178Z,13.10
2019-04-28T05:27:09.853Z,13.20
2019-04-28T05:29:39.814Z,13.20
2019-04-28T05:32:10.747Z,13.20
2019-04-28T05:34:46.840Z,13.20
2019-04-28T05:37:11.154Z,13.30
2019-04-28T05:39:40.646Z,13.30
2019-04-28T05:42:11.388Z,13.30
2019-04-28T05:44:40.923Z,13.40
2019-04-28T05:47:10.283Z,13.50
2019-04-28T05:49:55.250Z,13.50
2019-04-28T05:52:52.653Z,13.50
2019-04-28T05:55:26.382Z,13.50
2019-04-28T05:58:14.790Z,13.60
2019-04-28T06:01:10.276Z,13.60
2019-04-28T06:03:40.595Z,13.70
2019-04-28T06:06:10.258Z,13.70
2019-04-28T06:08:59.794Z,13.80
2019-04-28T06:11:30.864Z,13.80
2019-04-28T06:14:00.219Z,13.90
2019-04-28T06:16:30.417Z,14.00
2019-04-28T06:19:00.192Z,14.10
2019-04-28T06:21:29.487Z,14.10
2019-04-28T06:23:58.765Z,14.20
2019-04-28T06:26:28.113Z,14.30
2019-04-28T06:28:57.427Z,14.30
2019-04-28T06:31:26.757Z,14.40
2019-04-28T06:33:56.023Z,14.40
2019-04-28T06:36:25.321Z,14.50
2019-04-28T06:38:54.573Z,14.50
2019-04-28T06:41:23.845Z,14.50
2019-04-28T06:43:53.162Z,14.50
2019-04-28T06:46:22.425Z,14.50
2019-04-28T06:48:51.685Z,14.60
2019-04-28T06:51:21.002Z,14.60
2019-04-28T06:53:50.273Z,14.60
2019-04-28T06:56:19.601Z,14.70
2019-04-28T06:58:58.914Z,14.70
2019-04-28T07:01:19.865Z,14.70
2019-04-28T07:03:49.156Z,14.70
2019-04-28T07:06:18.569Z,14.70
2019-04-28T07:08:47.849Z,14.70
2019-04-28T07:11:17.137Z,14.80
2019-04-28T07:13:46.601Z,14.90
2019-04-28T07:16:19.305Z,14.90
2019-04-28T07:18:48.068Z,15.00
2019-04-28T07:21:26.922Z,15.00
2019-04-28T07:23:56.220Z,15.10
2019-04-28T07:26:25.481Z,15.10
2019-04-28T07:28:54.860Z,15.20
2019-04-28T07:31:25.327Z,15.20
2019-04-28T07:33:54.633Z,15.20
2019-04-28T07:36:23.904Z,15.30
2019-04-28T07:38:53.288Z,15.30
2019-04-28T07:41:22.576Z,15.30
2019-04-28T07:43:51.896Z,15.40
2019-04-28T07:46:21.184Z,15.40
2019-04-28T07:48:52.405Z,15.50
2019-04-28T07:51:23.008Z,15.50
2019-04-28T07:54:11.845Z,15.50
2019-04-28T07:56:41.177Z,15.50
2019-04-28T07:59:10.464Z,15.50
2019-04-28T08:01:39.900Z,15.50
2019-04-28T08:04:09.260Z,15.60
2019-04-28T08:06:38.559Z,15.60
2019-04-28T08:09:10.565Z,15.70
2019-04-28T08:11:39.835Z,15.80
2019-04-28T08:14:09.160Z,15.80
2019-04-28T08:16:38.541Z,15.80
2019-04-28T08:19:07.916Z,15.80
2019-04-28T08:21:37.228Z,15.80
2019-04-28T08:24:06.504Z,15.80
2019-04-28T08:26:36.343Z,15.80
2019-04-28T08:29:05.795Z,15.80
2019-04-28T08:31:48.621Z,15.90
2019-04-28T08:34:18.395Z,15.90
2019-04-28T08:36:47.699Z,15.90
2019-04-28T08:39:17.131Z,15.90
2019-04-28T08:41:46.414Z,15.90
2019-04-28T08:44:15.796Z,15.90
2019-04-28T08:46:45.171Z,15.90
2019-04-28T08:49:14.515Z,15.90
2019-04-28T08:51:43.879Z,15.90
2019-04-28T08:54:13.155Z,16.00
2019-04-28T08:56:42.540Z,15.90
2019-04-28T08:59:11.859Z,15.90
2019-04-28T09:01:41.119Z,15.90
2019-04-28T09:04:15.458Z,15.90
2019-04-28T09:06:41.398Z,15.90
2019-04-28T09:09:14.798Z,15.90
2019-04-28T09:11:44.181Z,15.90
2019-04-28T09:14:13.533Z,15.90
2019-04-28T09:16:42.817Z,15.90
2019-04-28T09:19:12.113Z,16.00
2019-04-28T09:21:41.390Z,16.00
2019-04-28T09:24:10.775Z,16.00
2019-04-28T09:26:40.033Z,16.10
2019-04-28T09:29:09.355Z,16.10
2019-04-28T09:31:38.609Z,16.20
2019-04-28T09:34:07.865Z,16.20
2019-04-28T09:36:37.229Z,16.20
2019-04-28T09:39:08.522Z,16.20
2019-04-28T09:41:39.541Z,16.20
2019-04-28T09:44:17.210Z,16.20
2019-04-28T09:46:47.272Z,16.20
2019-04-28T09:49:16.533Z,16.20
2019-04-28T09:51:45.824Z,16.20
2019-04-28T09:54:15.136Z,16.20
2019-04-28T09:56:56.036Z,16.20
2019-04-28T09:59:15.524Z,16.20
2019-04-28T10:01:44.877Z,16.20
2019-04-28T10:04:14.265Z,16.20
2019-04-28T10:06:43.536Z,16.30
2019-04-28T10:09:12.936Z,16.40
2019-04-28T10:11:42.224Z,16.40
2019-04-28T10:14:11.624Z,16.40
2019-04-28T10:16:40.976Z,16.40
2019-04-28T10:19:10.320Z,16.50
2019-04-28T10:21:39.606Z,16.50
2019-04-28T10:24:08.932Z,16.60
2019-04-28T10:26:38.408Z,16.60
2019-04-28T10:29:07.716Z,16.60
2019-04-28T10:31:37.040Z,16.70
2019-04-28T10:34:06.324Z,16.70
2019-04-28T10:36:36.510Z,16.80
2019-04-28T10:39:31.171Z,16.80
2019-04-28T10:42:00.548Z,16.90
2019-04-28T10:44:31.340Z,16.90
2019-04-28T10:47:01.204Z,16.90
2019-04-28T10:49:30.604Z,16.90
2019-04-28T10:51:59.979Z,17.00
2019-04-28T10:54:29.343Z,16.90
2019-04-28T10:56:58.707Z,16.90
2019-04-28T10:59:28.043Z,16.80
2019-04-28T11:01:57.423Z,16.80
2019-04-28T11:04:44.648Z,16.80
2019-04-28T11:07:14.424Z,16.80
2019-04-28T11:09:47.939Z,16.70
2019-04-28T11:12:25.864Z,16.80
2019-04-28T11:14:55.198Z,16.80
2019-04-28T11:17:25.795Z,16.80
2019-04-28T11:19:55.107Z,16.80
2019-04-28T11:22:24.432Z,16.70
2019-04-28T11:24:53.731Z,16.70
2019-04-28T11:27:23.047Z,16.70
2019-04-28T11:29:52.375Z,16.70
2019-04-28T11:32:21.747Z,16.70
2019-04-28T11:34:57.299Z,16.70
2019-04-28T11:37:26.671Z,16.70
2019-04-28T11:39:56.008Z,16.70
2019-04-28T11:42:25.303Z,16.70
2019-04-28T11:44:54.579Z,16.80
2019-04-28T11:47:24.019Z,16.80
2019-04-28T11:49:53.303Z,16.80
2019-04-28T11:52:22.671Z,16.80
2019-04-28T11:54:51.999Z,16.80
2019-04-28T11:57:21.351Z,16.80
2019-04-28T11:59:50.675Z,16.70
2019-04-28T12:02:19.982Z,16.70
2019-04-28T12:04:49.294Z,16.60
2019-04-28T12:07:18.654Z,16.60
2019-04-28T12:10:04.908Z,16.60
2019-04-28T12:13:07.546Z,16.40
2019-04-28T12:15:54.702Z,16.40
2019-04-28T12:18:44.750Z,16.40
2019-04-28T12:21:14.134Z,16.40
2019-04-28T12:23:43.426Z,16.30
2019-04-28T12:26:12.776Z,16.30
2019-04-28T12:28:42.150Z,16.30
2019-04-28T12:31:11.470Z,16.20
2019-04-28T12:33:40.746Z,16.20
2019-04-28T12:36:10.118Z,16.20
2019-04-28T12:38:39.417Z,16.10
2019-04-28T12:41:08.694Z,16.10
2019-04-28T12:43:38.002Z,16.00
2019-04-28T12:46:07.337Z,16.00
2019-04-28T12:48:36.680Z,16.00
2019-04-28T12:51:05.946Z,16.00
2019-04-28T12:53:35.317Z,16.00
2019-04-28T12:56:04.673Z,16.00
2019-04-28T12:58:34.038Z,16.00
2019-04-28T13:01:13.661Z,16.00
2019-04-28T13:04:02.054Z,16.00
2019-04-28T13:06:31.421Z,16.00
2019-04-28T13:09:00.681Z,16.00
2019-04-28T13:11:30.017Z,15.90
2019-04-28T13:13:59.321Z,15.90
2019-04-28T13:16:28.752Z,15.90
2019-04-28T13:18:58.029Z,15.80
2019-04-28T13:21:27.425Z,15.80
2019-04-28T13:23:56.677Z,15.80
2019-04-28T13:26:25.965Z,15.70
2019-04-28T13:28:55.260Z,15.70
2019-04-28T13:31:24.522Z,15.70
2019-04-28T13:33:56.563Z,15.60
2019-04-28T13:36:25.273Z,15.60
2019-04-28T13:38:55.885Z,15.60
2019-04-28T13:41:25.169Z,15.60
2019-04-28T13:43:54.477Z,15.60
2019-04-28T13:46:23.784Z,15.60
2019-04-28T13:48:53.093Z,15.50
2019-04-28T13:51:22.376Z,15.50
2019-04-28T13:53:51.672Z,15.60
2019-04-28T13:56:20.997Z,15.60
2019-04-28T13:58:59.264Z,15.50
2019-04-28T14:01:46.564Z,15.60
2019-04-28T14:04:31.036Z,15.60
2019-04-28T14:07:09.751Z,15.60
2019-04-28T14:09:39.090Z,15.60
2019-04-28T14:12:08.387Z,15.50
2019-04-28T14:14:37.677Z,15.50
2019-04-28T14:17:07.068Z,15.50
2019-04-28T14:19:36.356Z,15.50
2019-04-28T14:22:05.761Z,15.50
2019-04-28T14:24:35.109Z,15.60
2019-04-28T14:27:04.475Z,15.50
2019-04-28T14:29:33.795Z,15.50
2019-04-28T14:32:03.034Z,15.60
2019-04-28T14:34:32.380Z,15.50
2019-04-28T14:37:01.736Z,15.50
2019-04-28T14:39:31.121Z,15.50
2019-04-28T14:42:00.484Z,15.50
2019-04-28T14:44:29.844Z,15.40
2019-04-28T14:46:59.163Z,15.40
2019-04-28T14:49:28.464Z,15.30
2019-04-28T14:51:57.728Z,15.30
2019-04-28T14:54:27.022Z,15.20
2019-04-28T14:56:56.330Z,15.20
2019-04-28T14:59:25.648Z,15.20
2019-04-28T15:02:19.798Z,15.10
2019-04-28T15:04:59.452Z,15.10
2019-04-28T15:08:03.206Z,15.00
2019-04-28T15:10:57.339Z,15.00
2019-04-28T15:13:27.103Z,15.00
2019-04-28T15:15:56.401Z,15.00
2019-04-28T15:18:25.693Z,15.00
2019-04-28T15:20:54.986Z,14.90
2019-04-28T15:23:24.247Z,14.90
2019-04-28T15:25:53.541Z,14.90
2019-04-28T15:28:22.970Z,14.90
2019-04-28T15:30:52.231Z,14.80
2019-04-28T15:33:21.488Z,14.90
2019-04-28T15:35:50.792Z,14.90
2019-04-28T15:38:20.079Z,14.90
2019-04-28T15:40:49.431Z,14.90
2019-04-28T15:43:18.771Z,14.90
2019-04-28T15:45:48.053Z,14.90
2019-04-28T15:48:17.410Z,14.90
2019-04-28T15:50:47.146Z,14.90
2019-04-28T15:53:16.559Z,14.90
2019-04-28T15:56:01.411Z,14.80
2019-04-28T15:58:32.615Z,14.80
2019-04-28T16:01:02.176Z,14.80
2019-04-28T16:03:31.539Z,14.80
2019-04-28T16:06:00.843Z,14.80
2019-04-28T16:08:30.134Z,14.80
2019-04-28T16:10:59.458Z,14.80
2019-04-28T16:13:28.760Z,14.70
2019-04-28T16:15:58.108Z,14.60
2019-04-28T16:18:27.526Z,14.70
2019-04-28T16:20:56.870Z,14.60
2019-04-28T16:23:26.160Z,14.50
2019-04-28T16:25:55.406Z,14.50
2019-04-28T16:28:25.733Z,14.50
2019-04-28T16:30:55.054Z,14.40
2019-04-28T16:33:24.442Z,14.40
2019-04-28T16:35:53.726Z,14.40
2019-04-28T16:38:23.010Z,14.30
2019-04-28T16:41:01.146Z,14.30
2019-04-28T16:43:31.141Z,14.30
2019-04-28T16:46:00.394Z,14.30
2019-04-28T16:48:29.798Z,14.30
2019-04-28T16:50:59.123Z,14.20
2019-04-28T16:53:28.561Z,14.20
2019-04-28T16:56:25.969Z,14.20
2019-04-28T16:59:20.282Z,14.20
2019-04-28T17:01:54.801Z,14.10
2019-04-28T17:04:24.198Z,14.10
2019-04-28T17:06:53.467Z,14.10
2019-04-28T17:09:23.718Z,14.10
2019-04-28T17:11:53.029Z,14.10
2019-04-28T17:14:22.341Z,14.10
2019-04-28T17:16:51.641Z,14.10
2019-04-28T17:19:21.053Z,14.00
2019-04-28T17:21:50.417Z,14.00
2019-04-28T17:24:19.789Z,14.00
2019-04-28T17:26:49.197Z,14.00
2019-04-28T17:29:18.501Z,14.00
2019-04-28T17:31:47.897Z,14.00
2019-04-28T17:34:17.160Z,14.00
2019-04-28T17:36:46.454Z,14.00
2019-04-28T17:39:18.241Z,13.90
2019-04-28T17:41:47.555Z,14.00
2019-04-28T17:44:17.224Z,14.00
2019-04-28T17:46:46.833Z,14.00
2019-04-28T17:49:16.204Z,14.00
2019-04-28T17:51:45.612Z,14.00
2019-04-28T17:54:14.968Z,14.00
2019-04-28T17:56:44.268Z,13.90
2019-04-28T17:59:13.557Z,13.90
2019-04-28T18:02:01.865Z,13.80
2019-04-28T18:04:41.708Z,13.80
2019-04-28T18:07:36.077Z,13.80
2019-04-28T18:10:07.340Z,13.80
2019-04-28T18:12:36.756Z,13.80
2019-04-28T18:15:18.908Z,13.80
2019-04-28T18:18:05.986Z,13.70
2019-04-28T18:20:35.405Z,13.70
2019-04-28T18:23:04.686Z,13.70
2019-04-28T18:25:34.125Z,13.70
2019-04-28T18:28:03.474Z,13.70
2019-04-28T18:30:35.309Z,13.70
2019-04-28T18:33:22.157Z,13.60
2019-04-28T18:35:55.565Z,13.60
2019-04-28T18:38:37.298Z,13.60
2019-04-28T18:41:24.261Z,13.60
2019-04-28T18:44:12.566Z,13.60
2019-04-28T18:46:41.929Z,13.50
2019-04-28T18:49:11.265Z,13.50
2019-04-28T18:51:40.801Z,13.50
2019-04-28T18:54:10.178Z,13.50
2019-04-28T18:56:39.482Z,13.50
2019-04-28T18:59:08.729Z,13.50
2019-04-28T19:02:09.313Z,13.50
2019-04-28T19:04:38.652Z,13.50
2019-04-28T19:07:09.573Z,13.40
2019-04-28T19:10:03.884Z,13.40
2019-04-28T19:12:53.144Z,13.40
2019-04-28T19:15:40.156Z,13.40
2019-04-28T19:18:14.140Z,13.40
2019-04-28T19:20:43.478Z,13.30
2019-04-28T19:23:12.764Z,13.30
2019-04-28T19:25:42.168Z,13.30
2019-04-28T19:28:11.448Z,13.30
2019-04-28T19:30:41.119Z,13.30
2019-04-28T19:33:10.440Z,13.30
2019-04-28T19:35:39.784Z,13.30
2019-04-28T19:38:09.284Z,13.30
2019-04-28T19:40:38.560Z,13.30
2019-04-28T19:43:07.841Z,13.30
2019-04-28T19:45:38.758Z,13.30
2019-04-28T19:48:08.125Z,13.30
2019-04-28T19:50:37.369Z,13.30
2019-04-28T19:53:06.751Z,13.20
2019-04-28T19:55:39.602Z,13.20
2019-04-28T19:58:13.901Z,13.20
2019-04-28T20:01:08.670Z,13.20
2019-04-28T20:03:37.952Z,13.20
2019-04-28T20:06:07.198Z,13.10
2019-04-28T20:08:36.494Z,13.10
2019-04-28T20:11:05.729Z,13.10
2019-04-28T20:13:35.037Z,13.10
2019-04-28T20:16:04.317Z,13.10
2019-04-28T20:18:33.597Z,13.10
2019-04-28T20:21:02.971Z,13.10
2019-04-28T20:23:32.324Z,13.00
2019-04-28T20:26:01.588Z,13.10
2019-04-28T20:28:30.941Z,13.10
2019-04-28T20:31:00.285Z,13.10
2019-04-28T20:33:29.574Z,13.10
2019-04-28T20:36:03.349Z,13.10
2019-04-28T20:38:33.571Z,13.10
2019-04-28T20:41:18.454Z,13.10
2019-04-28T20:43:47.765Z,13.10
2019-04-28T20:46:17.073Z,13.10
2019-04-28T20:48:46.473Z,13.10
2019-04-28T20:51:15.745Z,13.10
2019-04-28T20:53:45.077Z,13.00
2019-04-28T20:56:14.416Z,13.00
2019-04-28T20:58:43.661Z,13.00
2019-04-28T21:01:12.929Z,13.00
2019-04-28T21:03:42.218Z,13.00
2019-04-28T21:06:11.553Z,13.00
2019-04-28T21:08:40.937Z,13.00
2019-04-28T21:11:10.204Z,13.00
2019-04-28T21:13:39.556Z,13.00
2019-04-28T21:16:08.860Z,13.00
2019-04-28T21:18:38.092Z,13.00
2019-04-28T21:21:07.377Z,13.00
2019-04-28T21:23:36.660Z,13.00
2019-04-28T21:26:05.910Z,13.00
2019-04-28T21:28:35.192Z,13.00
2019-04-28T21:31:04.470Z,13.00
2019-04-28T21:33:33.768Z,13.00
2019-04-28T21:36:03.027Z,13.00
2019-04-28T21:38:32.247Z,13.00
2019-04-28T21:41:01.611Z,13.00
2019-04-28T21:43:49.934Z,13.00
2019-04-28T21:46:39.915Z,13.00
2019-04-28T21:49:22.454Z,13.00
2019-04-28T21:51:51.687Z,13.00
2019-04-28T21:54:21.055Z,13.00
2019-04-28T21:56:50.302Z,13.00
2019-04-28T21:59:19.623Z,13.00
2019-04-28T22:01:49.082Z,13.00
2019-04-28T22:04:18.363Z,13.00
2019-04-28T22:06:47.635Z,13.10
2019-04-28T22:09:17.599Z,13.10
2019-04-28T22:11:46.979Z,13.10
2019-04-28T22:14:16.156Z,13.10
2019-04-28T22:16:45.454Z,13.10
2019-04-28T22:19:14.687Z,13.10
2019-04-28T22:21:44.002Z,13.10
2019-04-28T22:24:28.991Z,13.10
2019-04-28T22:26:58.267Z,13.10
2019-04-28T22:29:27.510Z,13.00
2019-04-28T22:31:56.864Z,13.10
2019-04-28T22:34:26.062Z,13.10
2019-04-28T22:36:55.314Z,13.10
2019-04-28T22:39:24.590Z,13.10
2019-04-28T22:41:53.762Z,13.10
2019-04-28T22:44:23.070Z,13.10
2019-04-28T22:46:52.358Z,13.10
2019-04-28T22:49:21.685Z,13.10
2019-04-28T22:51:50.966Z,13.20
2019-04-28T22:54:42.332Z,13.20
2019-04-28T22:57:39.609Z,13.20
2019-04-28T23:00:29.805Z,13.20
2019-04-28T23:02:59.124Z,13.20
2019-04-28T23:05:28.541Z,13.20
2019-04-28T23:07:57.798Z,13.20
2019-04-28T23:10:27.090Z,13.20
2019-04-28T23:12:56.374Z,13.20
2019-04-28T23:15:25.641Z,13.20
2019-04-28T23:17:55.014Z,13.20
2019-04-28T23:20:25.962Z,13.20
2019-04-28T23:22:55.373Z,13.30
2019-04-28T23:25:24.623Z,13.30
2019-04-28T23:27:53.981Z,13.30
2019-04-28T23:30:37.453Z,13.30
2019-04-28T23:33:06.790Z,13.30
2019-04-28T23:35:36.082Z,13.30
2019-04-28T23:38:05.406Z,13.30
2019-04-28T23:40:36.541Z,13.30
2019-04-28T23:43:09.761Z,13.20
2019-04-28T23:45:39.118Z,13.20
2019-04-28T23:48:08.346Z,13.20
2019-04-28T23:50:48.572Z,13.20
2019-04-28T23:53:18.742Z,13.20
2019-04-28T23:55:47.981Z,13.20
2019-04-28T23:58:17.218Z,13.20
